Latest Weather Observations for Pound Creek

IDV60801

Issued at 11:02 am EDT Saturday 7 March 2015 (issued every 30 minutes, with the page automatically refreshed every 10 minutes)

About weather observations | Map of weather stations | Latest weather observations for VIC | Other Formats
Station Details ID: 085099 Name: POUND CREEK Lat: -38.63 Lon: 145.81 Height: 3.0 m
Data from the previous 72 hours. | See also: Recent months at Pound Creek
Date/Time
EDT
Temp
°C
App
Temp
°C
Dew
Point
Rel
Hum
%
Delta-T
°C
Wind Press
QNH
hPa
Press
MSL
hPa
Rain
since 9 am
mm
Dir
 
Spd
km/h
Gust
km/h
Spd
kts
Gust
kts
07/11:00am 18.0 15.5 14.1 78 2.2 WNW 20 35 11 19 1011.0 1011.0 0.0
07/10:30am 16.7 14.3 14.3 86 1.4 WNW 20 35 11 19 1010.9 1010.9 0.0
07/10:00am 17.5 15.1 14.4 82 1.8 WNW 20 33 11 18 1010.6 1010.6 0.0
07/09:30am 17.8 17.1 15.4 86 1.4 NW 13 22 7 12 1010.5 1010.5 0.0
07/09:00am 16.5 15.4 14.3 87 1.3 WNW 13 28 7 15 1010.4 1010.4 2.4
07/08:30am 16.3 14.9 14.5 89 1.0 NW 15 30 8 16 1010.4 1010.4 2.4
07/08:00am 15.7 14.9 14.1 90 0.9 NW 11 17 6 9 1010.2 1010.2 2.4
07/07:30am 15.4 14.6 14.1 92 0.7 NW 11 20 6 11 1010.1 1010.1 2.4
07/07:00am 15.3 14.6 14.2 93 0.6 NW 11 19 6 10 1009.9 1009.9 2.4
07/06:30am 14.8 14.7 14.0 95 0.4 NW 7 11 4 6 1009.7 1009.7 2.4
07/06:00am 14.9 14.5 14.1 95 0.5 NW 9 15 5 8 1009.7 1009.7 2.4
07/05:30am 14.8 14.0 14.0 95 0.4 NW 11 19 6 10 1009.7 1009.7 2.4
07/05:00am 15.2 14.9 14.4 95 0.5 NW 9 17 5 9 1009.7 1009.7 2.4
07/04:30am 15.3 15.0 14.3 94 0.6 WNW 9 20 5 11 1009.9 1009.9 2.0
07/04:00am 15.4 15.4 14.3 93 0.6 WNW 7 11 4 6 1009.9 1009.9 1.8
07/03:30am 15.7 15.7 14.2 91 0.9 WNW 7 17 4 9 1010.0 1010.0 1.8
07/03:00am 15.8 14.0 14.5 92 0.7 W 17 24 9 13 1010.2 1010.2 1.8
07/02:30am 15.7 13.9 14.4 92 0.7 W 17 26 9 14 1010.5 1010.5 1.8
07/02:00am 15.5 14.9 14.7 95 0.5 WNW 11 19 6 10 1010.8 1010.8 1.8
07/01:30am 15.5 14.9 14.7 95 0.5 WNW 11 19 6 10 1010.9 1010.9 1.8
07/01:00am 15.5 15.6 14.5 94 0.6 WNW 7 15 4 8 1010.9 1010.9 1.8
07/12:30am 15.2 15.2 14.2 94 0.6 NNW 7 11 4 6 1011.0 1011.0 1.6
07/12:00am 15.4 15.6 14.1 92 0.7 WNW 6 13 3 7 1011.1 1011.1 1.6
 
Date/Time
EDT
Temp
°C
App
Temp
°C
Dew
Point
Rel
Hum
%
Delta-T
°C
Wind Press
QNH
hPa
Press
MSL
hPa
Rain
since 9 am
mm
Dir
 
Spd
km/h
Gust
km/h
Spd
kts
Gust
kts
06/11:30pm 15.5 14.7 14.0 91 0.8 W 11 15 6 8 1011.3 1011.3 1.6
06/11:00pm 15.3 15.0 13.2 87 1.2 WNW 7 11 4 6 1011.6 1011.6 1.6
06/10:30pm 15.6 14.9 13.1 85 1.4 WNW 9 13 5 7 1011.7 1011.7 1.6
06/10:00pm 15.3 13.8 13.0 86 1.3 W 13 17 7 9 1011.6 1011.6 1.6
06/09:30pm 15.6 14.2 13.3 86 1.3 W 13 20 7 11 1011.6 1011.6 1.6
06/09:00pm 15.5 13.1 12.8 84 1.5 W 17 28 9 15 1011.3 1011.3 1.6
06/08:30pm 15.9 12.7 13.2 84 1.5 WSW 22 32 12 17 1011.0 1011.0 1.6
06/08:00pm 15.7 13.7 13.9 89 1.0 WSW 17 24 9 13 1010.6 1010.6 1.6
06/07:30pm 15.8 13.3 14.0 89 1.0 WSW 20 30 11 16 1010.5 1010.5 1.6
06/07:00pm 16.5 13.3 13.2 81 1.8 WSW 22 28 12 15 1010.5 1010.5 1.4
06/06:30pm 16.7 13.7 13.6 82 1.7 WSW 22 30 12 16 1010.2 1010.2 1.4
06/06:00pm 16.6 13.3 14.1 85 1.4 SW 24 32 13 17 1010.0 1010.0 1.4
06/05:30pm 16.9 13.9 14.9 88 1.2 WSW 24 33 13 18 1009.8 1009.8 1.4
06/05:00pm 16.6 12.6 14.2 86 1.4 WSW 28 39 15 21 1009.8 1009.8 1.4
06/04:30pm 17.1 12.7 14.0 82 1.8 SW 30 39 16 21 1009.6 1009.6 1.2
06/04:00pm 18.3 13.5 14.6 79 2.1 WSW 33 43 18 23 1009.5 1009.5 1.2
06/03:30pm 17.0 12.4 14.5 85 1.4 WSW 32 43 17 23 1009.5 1009.5 1.2
06/03:00pm 17.0 12.7 15.3 90 1.0 SW 32 43 17 23 1009.6 1009.6 1.2
06/02:30pm 17.4 12.6 15.6 89 1.1 SW 35 44 19 24 1009.4 1009.4 1.0
06/02:00pm 17.3 13.2 16.5 95 0.5 SW 33 46 18 25 1009.4 1009.4 1.0
06/01:34pm 17.3 13.0 15.3 88 1.2 WSW 32 52 17 28 1009.3 1009.3 0.6
06/01:30pm 16.6 11.2 13.9 84 1.5 WSW 35 52 19 28 1009.4 1009.4 0.6
06/01:00pm 18.5 12.6 14.8 79 2.2 WSW 39 50 21 27 1009.1 1009.1 0.6
06/12:30pm 17.9 12.4 14.8 82 1.8 WSW 37 52 20 28 1008.9 1008.9 0.6
06/12:00pm 18.0 11.4 14.9 82 1.8 WSW 43 59 23 32 1008.9 1008.9 0.6
06/11:53am 18.4 12.8 15.5 83 1.7 WSW 39 59 21 32 1008.7 1008.7 0.6
06/11:30am 17.7 10.9 14.8 83 1.7 WSW 44 61 24 33 1008.6 1008.6 0.6
06/11:18am 17.8 12.2 15.4 86 1.4 WSW 39 63 21 34 1008.4 1008.4 0.6
06/11:00am 17.8 12.0 14.9 83 1.7 WSW 39 54 21 29 1008.4 1008.4 0.6
06/10:45am 18.0 11.9 15.1 83 1.7 WSW 41 59 22 32 1008.1 1008.1 0.6
06/10:30am 17.2 11.0 15.0 87 1.3 WSW 41 57 22 31 1007.9 1007.9 0.6
06/10:00am 16.6 10.9 15.3 92 0.8 WSW 39 59 21 32 1007.8 1007.8 0.6
06/09:58am 16.4 10.7 15.3 93 0.6 WSW 39 59 21 32 1007.7 1007.7 0.6
06/09:30am 16.2 9.9 14.7 91 0.9 WSW 41 56 22 30 1007.5 1007.5 0.2
06/09:00am 16.1 9.3 14.3 89 1.0 WSW 43 59 23 32 1007.6 1007.6 6.0
06/08:30am 15.7 9.3 14.2 91 0.9 WSW 41 63 22 34 1007.4 1007.4 6.0
06/08:00am 15.4 9.7 14.3 93 0.6 W 37 59 20 32 1007.0 1007.0 5.8
06/07:30am 15.0 9.8 14.4 96 0.3 W 35 54 19 29 1006.8 1006.8 5.8
06/07:24am 14.9 9.6 14.3 96 0.3 W 35 54 19 29 1006.8 1006.8 5.8
06/07:00am 14.7 9.0 14.2 97 0.3 W 37 52 20 28 1006.8 1006.8 5.4
06/06:30am 14.0 8.8 13.5 97 0.3 W 33 44 18 24 1006.8 1006.8 4.2
06/06:00am 13.1 7.6 12.3 95 0.4 WNW 33 57 18 31 1007.0 1007.0 2.6
06/05:30am 13.5 7.3 12.6 94 0.5 W 37 56 20 30 1007.2 1007.2 1.6
06/05:15am 13.7 8.9 12.8 94 0.5 W 30 54 16 29 1007.4 1007.4 1.2
06/05:00am 13.1 9.8 11.7 91 0.7 WNW 20 33 11 18 1007.7 1007.7 0.6
06/04:30am 13.2 10.0 11.3 88 1.0 WNW 19 33 10 18 1007.7 1007.7 0.6
06/04:00am 13.0 10.1 10.9 87 1.1 WNW 17 32 9 17 1008.1 1008.1 0.4
06/03:30am 13.8 10.5 10.8 82 1.6 WNW 19 30 10 16 1008.3 1008.3 0.2
06/03:00am 13.4 8.2 10.4 82 1.6 WNW 28 39 15 21 1009.1 1009.1 0.2
06/02:30am 14.4 10.8 10.0 75 2.3 WNW 19 37 10 20 1009.4 1009.4 0.2
06/02:19am 14.9 9.8 10.5 75 2.3 W 28 46 15 25 1009.5 1009.5 0.2
06/02:00am 13.9 9.6 10.7 81 1.7 WNW 24 39 13 21 1009.9 1009.9 0.2
06/01:30am 14.7 7.6 9.7 72 2.6 W 37 61 20 33 1010.0 1010.0 0.2
06/01:24am 15.1 9.4 9.7 70 2.8 WNW 30 61 16 33 1010.0 1010.0 0.2
06/01:00am 14.1 9.9 9.9 76 2.2 WNW 22 37 12 20 1010.3 1010.3 0.2
06/12:30am 13.9 8.9 9.7 76 2.2 WNW 26 41 14 22 1010.8 1010.8 0.2
06/12:12am 15.0 9.7 10.0 72 2.6 W 28 50 15 27 1010.9 1010.9 0.2
06/12:00am 14.2 9.9 9.4 73 2.5 WNW 22 35 12 19 1011.1 1011.1 0.2
 
Date/Time
EDT
Temp
°C
App
Temp
°C
Dew
Point
Rel
Hum
%
Delta-T
°C
Wind Press
QNH
hPa
Press
MSL
hPa
Rain
since 9 am
mm
Dir
 
Spd
km/h
Gust
km/h
Spd
kts
Gust
kts
05/11:31pm 15.4 9.1 8.9 65 3.3 W 32 61 17 33 1011.3 1011.3 0.2
05/11:30pm 15.5 9.2 9.0 65 3.3 W 32 50 17 27 1011.3 1011.3 0.2
05/11:03pm 15.2 8.9 9.1 67 3.1 W 32 52 17 28 1011.5 1011.5 0.2
05/11:00pm 15.1 8.6 9.0 67 3.1 W 33 52 18 28 1011.5 1011.5 0.2
05/10:36pm 15.1 8.2 9.0 67 3.1 W 35 54 19 29 1011.7 1011.7 0.2
05/10:30pm 15.0 7.0 9.1 68 3.0 W 41 54 22 29 1011.8 1011.8 0.2
05/10:00pm 15.2 8.5 9.6 69 2.9 W 35 54 19 29 1012.1 1012.1 0.2
05/09:58pm 15.2 8.9 9.6 69 2.9 W 33 54 18 29 1012.1 1012.1 0.2
05/09:30pm 15.4 8.8 7.7 60 3.8 W 32 44 17 24 1012.3 1012.3 0.2
05/09:00pm 15.4 9.3 8.4 63 3.5 W 30 43 16 23 1012.4 1012.4 0.2
05/08:30pm 15.3 9.2 6.6 56 4.2 W 28 44 15 24 1012.8 1012.8 0.2
05/08:00pm 15.3 8.6 7.3 59 4.0 W 32 48 17 26 1013.0 1013.0 0.2
05/07:42pm 15.3 8.6 8.3 63 3.5 W 33 52 18 28 1013.1 1013.1 0.2
05/07:30pm 15.5 9.5 7.0 57 4.2 W 28 41 15 22 1013.2 1013.2 0.2
05/07:00pm 15.3 9.4 7.6 60 3.8 W 28 43 15 23 1013.5 1013.5 0.2
05/06:30pm 15.8 9.7 6.5 54 4.5 W 28 41 15 22 1013.7 1013.7 0.2
05/06:00pm 16.1 10.0 8.3 60 4.0 W 30 43 16 23 1014.1 1014.1 0.2
05/05:30pm 15.6 8.6 8.6 63 3.6 WSW 35 46 19 25 1014.4 1014.4 0.2
05/05:00pm 16.0 9.2 7.7 58 4.1 WSW 33 44 18 24 1014.5 1014.5 0.2
05/04:30pm 16.3 8.9 6.7 53 4.7 WSW 35 50 19 27 1014.7 1014.7 0.2
05/04:00pm 16.7 9.9 7.1 53 4.8 WSW 32 48 17 26 1014.8 1014.8 0.2
05/03:30pm 16.6 8.7 6.1 50 5.1 WSW 37 52 20 28 1015.4 1015.4 0.2
05/03:00pm 18.2 11.0 6.1 45 5.9 WSW 33 50 18 27 1015.4 1015.4 0.2
05/02:30pm 17.1 9.6 4.4 43 6.0 WSW 33 44 18 24 1015.4 1015.4 0.2
05/02:00pm 17.3 10.3 6.8 50 5.2 WSW 33 44 18 24 1015.7 1015.7 0.2
05/01:30pm 16.7 11.4 9.9 64 3.6 WSW 28 43 15 23 1016.1 1016.1 0.2
05/01:21pm 15.1 8.8 8.8 66 3.2 WSW 32 50 17 27 1016.2 1016.2 0.2
05/01:00pm 17.0 9.7 7.1 52 4.9 WSW 35 46 19 25 1016.2 1016.2 0.2
05/12:30pm 16.2 8.5 6.9 54 4.6 SW 37 50 20 27 1016.6 1016.6 0.2
05/12:20pm 16.4 8.6 6.5 52 4.8 SW 37 57 20 31 1016.6 1016.6 0.2
05/12:00pm 15.9 7.5 5.8 51 4.8 SW 39 54 21 29 1016.5 1016.5 0.2
05/11:30am 15.1 7.0 7.2 59 3.9 SW 39 54 21 29 1016.4 1016.4 0.2
05/11:00am 12.0 3.0 8.8 81 1.6 SW 46 69 25 37 1016.5 1016.5 0.0
05/10:52am 14.8 6.2 8.1 64 3.4 SW 43 69 23 37 1016.1 1016.1 0.0
05/10:30am 14.3 6.3 7.6 64 3.3 SW 39 50 21 27 1015.9 1015.9 0.0
05/10:05am 13.4 4.7 7.8 69 2.8 SW 43 61 23 33 1015.6 1015.6 0.0
05/10:00am 13.5 4.7 7.9 69 2.8 SW 44 61 24 33 1015.5 1015.5 0.0
05/09:33am 14.8 5.3 4.8 51 4.7 SW 44 63 24 34 1014.6 1014.6 0.0
05/09:30am 15.1 5.9 5.6 53 4.5 WSW 43 59 23 32 1014.5 1014.5 0.0
05/09:22am 14.8 6.1 6.1 56 4.2 WSW 41 59 22 32 1014.4 1014.4 0.0
05/09:00am 14.1 5.4 6.0 58 3.9 SW 41 54 22 29 1013.9 1013.9 6.6
05/08:37am 14.2 5.0 6.3 59 3.8 SW 44 65 24 35 1013.6 1013.6 6.6
05/08:30am 13.9 3.8 5.5 57 4.0 SW 48 65 26 35 1013.6 1013.6 6.6
05/08:07am 13.4 4.4 6.5 63 3.3 WSW 43 61 23 33 1013.3 1013.3 6.6
05/08:00am 13.5 4.2 5.9 60 3.6 WSW 44 59 24 32 1013.1 1013.1 6.6
05/07:30am 13.4 4.0 7.0 65 3.1 SW 46 63 25 34 1012.4 1012.4 6.6
05/07:00am 13.6 4.1 6.7 63 3.3 SW 46 65 25 35 1011.9 1011.9 6.6
05/06:30am 13.1 3.2 6.5 64 3.2 WSW 48 69 26 37 1011.5 1011.5 6.6
05/06:00am 13.1 3.3 6.9 66 3.0 SW 48 67 26 36 1011.3 1011.3 6.6
05/05:30am 13.2 1.8 6.5 64 3.2 WSW 56 74 30 40 1010.2 1010.2 6.6
05/05:02am 13.6 4.1 8.2 70 2.7 WSW 48 69 26 37 1009.6 1009.6 6.6
05/05:00am 13.9 4.9 8.9 72 2.5 WSW 46 65 25 35 1009.5 1009.5 6.6
05/04:30am 14.2 2.5 7.7 65 3.2 WSW 59 82 32 44 1008.6 1008.6 6.4
05/04:00am 13.4 3.6 10.0 80 1.8 WSW 52 76 28 41 1008.2 1008.2 6.4
05/03:30am 13.6 3.9 11.7 88 1.0 WSW 54 80 29 43 1007.8 1007.8 5.8
05/03:00am 13.4 5.3 12.0 91 0.8 WSW 46 83 25 45 1006.8 1006.8 5.2
05/02:53am 13.8 7.6 12.5 92 0.7 W 37 83 20 45 1007.0 1007.0 4.6
05/02:30am 14.4 8.8 13.3 93 0.6 W 35 54 19 29 1006.7 1006.7 2.6
05/02:25am 14.3 9.2 13.2 93 0.6 W 32 52 17 28 1006.5 1006.5 2.4
05/02:00am 14.5 8.5 13.2 92 0.7 W 37 50 20 27 1006.6 1006.6 1.8
05/01:38am 17.5 12.4 12.0 70 3.0 WNW 30 50 16 27 1006.5 1006.5 0.0
05/01:30am 17.4 13.1 11.9 70 3.0 WNW 26 43 14 23 1006.4 1006.4 0.0
05/01:00am 17.8 12.3 12.0 69 3.2 WNW 32 44 17 24 1006.5 1006.5 0.0
05/12:30am 17.3 14.3 12.6 74 2.6 WNW 20 37 11 20 1006.9 1006.9 0.0
05/12:00am 16.8 15.1 13.7 82 1.8 WNW 15 28 8 15 1007.0 1007.0 0.0
 
Date/Time
EDT
Temp
°C
App
Temp
°C
Dew
Point
Rel
Hum
%
Delta-T
°C
Wind Press
QNH
hPa
Press
MSL
hPa
Rain
since 9 am
mm
Dir
 
Spd
km/h
Gust
km/h
Spd
kts
Gust
kts
04/11:30pm 14.7 14.2 12.7 88 1.1 NW 7 11 4 6 1007.3 1007.3 0.0
04/11:00pm 14.4 13.5 12.6 89 1.0 NNW 9 13 5 7 1007.4 1007.4 0.0
04/10:30pm 14.2 13.1 12.1 87 1.1 N 9 11 5 6 1008.0 1008.0 0.0
04/10:00pm 13.9 13.3 11.8 87 1.1 NNW 6 7 3 4 1008.5 1008.5 0.0
04/09:30pm 14.9 14.4 12.2 84 1.5 NNW 6 7 3 4 1008.5 1008.5 0.0
04/09:00pm 16.0 15.7 12.6 80 1.9 NW 6 7 3 4 1008.7 1008.7 0.0
04/08:30pm 16.5 15.9 12.3 76 2.3 WNW 7 11 4 6 1008.7 1008.7 0.0
04/08:00pm 17.5 16.2 12.4 72 2.8 WNW 11 15 6 8 1008.7 1008.7 0.0
04/07:30pm 18.9 16.8 12.4 66 3.6 W 15 24 8 13 1008.9 1008.9 0.0
04/07:00pm 20.1 16.0 11.6 58 4.7 W 24 32 13 17 1009.0 1009.0 0.0
04/06:30pm 20.3 16.1 11.2 56 5.0 W 24 35 13 19 1009.3 1009.3 0.0
04/06:00pm 21.5 17.0 11.5 53 5.6 WNW 26 39 14 21 1009.4 1009.4 0.0
04/05:30pm 20.9 17.4 12.1 57 4.9 W 22 33 12 18 1009.8 1009.8 0.0
04/05:00pm 20.2 16.2 11.7 58 4.7 W 24 35 13 19 1010.1 1010.1 0.0
04/04:30pm 21.7 18.2 12.3 55 5.3 WNW 22 28 12 15 1010.2 1010.2 0.0
04/04:00pm 21.1 17.0 11.4 54 5.4 W 24 39 13 21 1010.5 1010.5 0.0
04/03:30pm 20.5 16.1 11.7 57 4.9 W 26 33 14 18 1011.0 1011.0 0.0
04/03:00pm 20.6 16.6 11.8 57 4.9 W 24 33 13 18 1011.4 1011.4 0.0
04/02:30pm 21.3 17.2 11.3 53 5.5 WNW 24 37 13 20 1011.6 1011.6 0.0
04/02:00pm 20.3 16.3 10.4 53 5.4 WNW 22 35 12 19 1011.9 1011.9 0.0
04/01:30pm 20.4 16.1 10.8 54 5.2 W 24 35 13 19 1012.2 1012.2 0.0
04/01:00pm 20.5 17.1 11.4 56 5.0 WNW 20 32 11 17 1012.7 1012.7 0.0
04/12:30pm 20.0 16.1 10.7 55 5.1 W 22 35 12 19 1013.0 1013.0 0.0
04/12:00pm 19.4 15.9 10.9 58 4.6 WNW 20 30 11 16 1013.6 1013.6 0.0
04/11:30am 19.2 15.9 11.7 62 4.1 WNW 20 33 11 18 1014.0 1014.0 0.0

Other Formats:

Comma delimited format used in spreadsheet applications
http://www.bom.gov.au/fwo/IDV60801/IDV60801.94886.axf

JavaScript Object Notation format (JSON) in row-major order
http://www.bom.gov.au/fwo/IDV60801/IDV60801.94886.json